Time;durP1;ratioP1;P1;durP2;ratioP2;P2;SDS_P1;SDS_P2;PMS_P1;PMS_P2;Temp;Humidity;BMP_temperature;BMP_pressure;BME280_temperature;BME280_humidity;BME280_pressure;Samples;Min_cycle;Max_cycle;Signal;HPM_P1;HPM_P2
2022/03/29 00:01:30;;;;;;;8.33;6.60;;;14.20;47.90;;;-142.21;65.95;112049.66;4952801;28;20479;-78
2022/03/29 00:03:57;;;;;;;9.10;6.37;;;14.00;48.80;;;-142.21;66.89;112049.66;4953514;28;20488;-79
2022/03/29 00:06:24;;;;;;;11.57;7.20;;;14.00;48.20;;;-142.21;66.42;112049.66;4955194;28;20540;-78
2022/03/29 00:08:52;;;;;;;8.43;6.33;;;14.10;48.20;;;-142.21;66.17;112049.66;4949241;29;20492;-78
2022/03/29 00:11:19;;;;;;;8.33;6.30;;;14.20;47.80;;;-142.21;65.83;112049.66;4953441;28;20882;-78
2022/03/29 00:13:46;;;;;;;9.07;6.00;;;14.20;47.60;;;-142.21;66.23;112049.66;4953751;28;20496;-78
2022/03/29 00:16:13;;;;;;;10.40;6.30;;;14.20;47.60;;;-142.21;65.25;112049.66;4953012;28;20996;-78
2022/03/29 00:18:42;;;;;;;9.53;5.70;;;14.20;47.20;;;-142.21;64.57;112049.66;4952678;28;20559;-78
2022/03/29 00:21:09;;;;;;;8.07;6.27;;;14.20;47.20;;;-142.21;65.27;112049.66;4953893;28;20531;-78
2022/03/29 00:23:36;;;;;;;8.00;6.07;;;14.10;47.30;;;-142.21;65.32;112049.66;4953560;28;20575;-78
2022/03/29 00:26:04;;;;;;;9.23;7.20;;;14.10;47.30;;;-142.21;66.47;112049.66;4953152;28;20555;-79
2022/03/29 00:28:31;;;;;;;9.40;6.83;;;14.10;48.00;;;-142.21;67.21;112049.66;4952771;28;20456;-78
2022/03/29 00:30:58;;;;;;;7.83;6.37;;;14.10;47.90;;;-142.21;67.61;112049.66;4953238;28;20881;-77
2022/03/29 00:33:25;;;;;;;10.37;6.70;;;14.10;47.50;;;-142.21;66.09;112049.66;4942183;28;20527;-78
2022/03/29 00:35:54;;;;;;;8.53;6.77;;;14.10;47.30;;;-142.21;65.79;112049.66;4952549;28;20467;-78
2022/03/29 00:38:21;;;;;;;10.17;6.50;;;14.10;47.60;;;-142.21;67.40;112049.66;4953890;29;20543;-77
2022/03/29 00:40:48;;;;;;;12.90;7.37;;;14.20;47.50;;;-142.21;68.13;112049.66;4950820;29;20457;-76
2022/03/29 00:43:15;;;;;;;9.27;7.13;;;14.10;48.00;;;-142.21;66.59;112049.66;4952088;28;20810;-79
2022/03/29 00:45:43;;;;;;;11.67;6.83;;;14.10;48.40;;;-142.21;67.14;112049.66;4950974;28;20507;-78
2022/03/29 00:48:11;;;;;;;9.03;6.93;;;14.10;48.00;;;-142.21;67.68;112049.66;4953703;28;20555;-79
2022/03/29 00:50:39;;;;;;;8.23;6.27;;;14.20;47.80;;;-142.21;66.96;112049.66;4952779;29;20815;-78
2022/03/29 00:53:09;;;;;;;7.47;6.00;;;14.10;47.90;;;-142.21;66.00;112049.66;4952493;28;20456;-78
2022/03/29 00:55:38;;;;;;;10.23;7.20;;;14.10;47.90;;;-142.21;67.51;112049.66;4952914;29;20504;-78
2022/03/29 00:58:07;;;;;;;10.80;7.23;;;14.10;47.70;;;-142.21;67.70;112049.66;4952808;28;20452;-78
2022/03/29 01:00:36;;;;;;;9.77;6.57;;;14.10;48.30;;;-142.21;68.66;112049.66;4952819;28;20988;-78
2022/03/29 01:03:04;;;;;;;7.60;6.63;;;14.00;48.40;;;-142.21;67.65;112049.66;4939799;29;21372;-77
2022/03/29 01:05:32;;;;;;;10.70;6.90;;;13.90;48.30;;;-142.21;67.22;112049.66;4953231;29;20829;-78
2022/03/29 01:08:01;;;;;;;11.77;6.60;;;13.90;48.20;;;-142.21;66.64;112049.66;4952419;29;20487;-77
2022/03/29 01:10:30;;;;;;;9.87;7.33;;;13.90;48.40;;;-142.21;67.59;112049.66;4953501;28;20492;-78
2022/03/29 01:12:58;;;;;;;9.57;6.93;;;13.90;48.40;;;-142.21;68.20;112049.66;4954867;28;20457;-77
2022/03/29 01:15:29;;;;;;;10.87;6.60;;;13.90;48.00;;;-142.21;69.86;112049.66;4952628;28;20581;-78
2022/03/29 01:17:56;;;;;;;8.30;6.67;;;13.90;48.30;;;-142.21;69.60;112049.66;4953339;28;20481;-77
2022/03/29 01:20:27;;;;;;;12.67;6.90;;;13.90;48.40;;;-142.21;68.69;112049.66;4952136;28;20441;-78
2022/03/29 01:22:58;;;;;;;8.07;6.60;;;13.90;48.10;;;-142.21;68.84;112049.66;4949952;28;20678;-78
2022/03/29 01:25:31;;;;;;;9.00;6.73;;;13.80;48.40;;;-142.21;69.72;112049.66;4951262;29;21009;-78
2022/03/29 01:28:01;;;;;;;8.67;6.60;;;13.80;48.80;;;-142.21;68.97;112049.66;4916761;29;20553;-78
2022/03/29 01:30:28;;;;;;;8.73;7.10;;;13.70;49.10;;;-142.21;68.14;112049.66;4955671;29;20978;-79
2022/03/29 01:32:56;;;;;;;7.87;6.20;;;13.70;48.70;;;-142.21;67.64;112049.66;4957009;28;20492;-78
2022/03/29 01:35:25;;;;;;;9.67;7.00;;;13.60;48.80;;;-142.21;68.15;112049.66;4956079;28;20480;-78
2022/03/29 01:37:55;;;;;;;10.13;7.07;;;13.60;48.80;;;-142.21;69.04;112049.66;4956594;28;21001;-78
2022/03/29 01:40:25;;;;;;;13.43;7.30;;;13.60;49.10;;;-142.21;69.84;112049.66;4956127;29;20512;-77
2022/03/29 01:42:55;;;;;;;9.03;7.17;;;13.60;49.00;;;-142.21;70.89;112049.66;4945102;29;20459;-77
2022/03/29 01:45:25;;;;;;;10.83;7.60;;;13.50;49.10;;;-142.21;71.50;112049.66;4953757;29;20848;-77
2022/03/29 01:47:52;;;;;;;9.13;7.73;;;13.40;49.10;;;-142.21;72.52;112049.66;4937844;29;20457;-78
2022/03/29 01:50:20;;;;;;;9.40;7.40;;;13.40;49.60;;;-142.21;73.52;112049.66;4956879;29;20494;-77
2022/03/29 01:52:49;;;;;;;9.20;7.60;;;13.30;49.90;;;-142.21;73.39;112049.66;4956464;28;20520;-78
2022/03/29 01:55:21;;;;;;;10.27;7.93;;;13.30;50.00;;;-142.21;74.43;112049.66;4956375;28;20519;-77
2022/03/29 01:57:49;;;;;;;11.30;7.60;;;13.30;50.10;;;-142.21;73.68;112049.66;4955220;29;20516;-77
2022/03/29 02:00:34;;;;;;;10.70;7.40;;;13.20;50.00;;;-142.21;72.79;112049.66;4954495;28;20467;-77
2022/03/29 02:03:06;;;;;;;7.97;6.77;;;13.20;49.90;;;-142.21;72.84;112049.66;4954248;29;20488;-77
2022/03/29 02:05:34;;;;;;;10.03;6.73;;;13.20;50.50;;;-142.21;72.76;112049.66;4955615;29;20533;-77
2022/03/29 02:08:02;;;;;;;9.30;6.57;;;13.20;50.20;;;-142.21;73.17;112049.66;4956587;28;20487;-77
2022/03/29 02:10:32;;;;;;;9.13;6.90;;;13.20;50.60;;;-142.21;73.79;112049.66;4954778;28;20484;-76
2022/03/29 02:12:59;;;;;;;11.03;7.60;;;13.20;49.90;;;-142.21;73.67;112049.66;4936511;29;20449;-76
2022/03/29 02:15:27;;;;;;;8.97;6.97;;;13.20;50.00;;;-142.21;74.71;112049.66;4954578;29;20463;-76
2022/03/29 02:17:55;;;;;;;11.83;7.50;;;13.20;50.20;;;-142.21;76.16;112049.66;4961172;28;20508;-76
2022/03/29 02:20:26;;;;;;;9.23;7.10;;;13.20;50.40;;;-142.21;75.17;112049.66;4955460;28;20445;-77
2022/03/29 02:22:54;;;;;;;10.23;7.90;;;13.20;50.30;;;-142.21;76.07;112049.66;4954883;28;20492;-77
2022/03/29 02:25:22;;;;;;;10.67;6.53;;;13.20;49.80;;;-142.21;77.43;112049.66;4956101;29;20448;-76
2022/03/29 02:27:51;;;;;;;11.17;7.00;;;13.20;50.20;;;-142.21;76.75;112049.66;4936353;29;20477;-75
2022/03/29 02:30:19;;;;;;;10.93;6.90;;;13.20;50.20;;;-142.21;77.27;112049.66;4952663;29;21012;-76
2022/03/29 02:32:46;;;;;;;10.73;7.13;;;13.10;50.40;;;-142.21;75.51;112049.66;4955989;28;20499;-76
2022/03/29 02:35:14;;;;;;;10.60;6.93;;;13.10;50.20;;;-142.21;75.41;112049.66;4955044;28;20882;-75
2022/03/29 02:37:42;;;;;;;8.57;6.97;;;13.00;50.40;;;-142.21;74.85;112049.66;4954543;29;20540;-78
2022/03/29 02:40:13;;;;;;;9.03;6.97;;;13.00;50.40;;;-142.21;76.80;112049.66;4945874;28;21026;-77
2022/03/29 02:42:45;;;;;;;9.73;7.00;;;13.00;51.00;;;-142.21;75.58;112049.66;4952318;29;20433;-77
2022/03/29 02:45:19;;;;;;;13.43;7.23;;;13.00;50.20;;;-142.21;75.71;112049.66;4954274;29;20532;-77
2022/03/29 02:47:49;;;;;;;8.57;6.23;;;13.00;50.60;;;-142.21;75.85;112049.66;4955821;29;20952;-76
2022/03/29 02:50:18;;;;;;;10.70;7.00;;;13.00;50.40;;;-142.21;77.02;112049.66;4954368;29;21012;-79
2022/03/29 02:52:47;;;;;;;8.30;6.90;;;12.90;51.00;;;-142.21;77.20;112049.66;4955126;28;20805;-77
2022/03/29 02:55:15;;;;;;;10.00;7.10;;;12.90;50.90;;;-142.21;75.84;112049.66;4953904;28;20460;-79
2022/03/29 02:57:43;;;;;;;9.77;7.03;;;12.90;50.80;;;-142.21;77.25;112049.66;4955641;28;20882;-78
2022/03/29 03:00:15;;;;;;;11.50;7.33;;;12.80;51.30;;;-142.21;76.38;112049.66;4937550;29;20449;-76
2022/03/29 03:02:44;;;;;;;8.23;6.60;;;12.80;51.30;;;-142.21;77.42;112049.66;4955932;29;20853;-78
2022/03/29 03:05:12;;;;;;;9.47;7.00;;;12.80;51.40;;;-142.21;77.68;112049.66;4955303;28;20460;-77
2022/03/29 03:07:40;;;;;;;8.00;6.97;;;12.80;51.60;;;-142.21;78.38;112049.66;4954320;28;20500;-78
2022/03/29 03:10:09;;;;;;;12.37;7.73;;;12.80;51.30;;;-142.21;78.82;112049.66;4956905;28;20576;-76
2022/03/29 03:12:37;;;;;;;7.80;6.97;;;12.80;51.10;;;-142.21;79.05;112049.66;4959515;28;20465;-77
2022/03/29 03:15:06;;;;;;;9.97;7.43;;;12.80;51.50;;;-142.21;80.21;112049.66;4955478;28;20452;-78
2022/03/29 03:17:34;;;;;;;11.10;7.50;;;12.80;51.50;;;-142.21;79.65;112049.66;4954175;28;21036;-78
2022/03/29 03:20:04;;;;;;;11.87;7.43;;;12.80;51.50;;;-142.21;79.29;112049.66;4954679;28;20463;-78
2022/03/29 03:22:33;;;;;;;10.73;8.20;;;12.80;51.30;;;-142.21;78.28;112049.66;4953950;28;20459;-77
2022/03/29 03:25:01;;;;;;;10.87;7.60;;;12.80;51.50;;;-142.21;79.78;112049.66;4954712;29;20532;-77
2022/03/29 03:27:29;;;;;;;10.97;7.33;;;12.90;51.50;;;-142.21;79.74;112049.66;4955235;28;20445;-78
2022/03/29 03:29:56;;;;;;;9.47;7.97;;;12.90;51.40;;;-142.21;79.67;112049.66;4955064;28;20520;-77
2022/03/29 03:32:23;;;;;;;10.70;6.73;;;12.90;51.50;;;-142.21;79.05;112049.66;4954721;28;20464;-78
2022/03/29 03:34:51;;;;;;;10.23;7.00;;;12.90;51.30;;;-142.21;79.83;112049.66;4953709;28;20467;-78
2022/03/29 03:37:19;;;;;;;13.83;7.40;;;13.00;51.60;;;-142.21;79.24;112049.66;4953079;29;20506;-78
2022/03/29 03:39:47;;;;;;;9.77;6.77;;;12.90;51.50;;;-142.21;79.58;112049.66;4934757;29;20514;-78
2022/03/29 03:42:14;;;;;;;8.90;7.30;;;12.90;52.20;;;-142.21;79.91;112049.66;4945292;29;20455;-78
2022/03/29 03:44:41;;;;;;;10.93;7.33;;;12.80;52.30;;;-142.21;80.42;112049.66;4954450;28;20547;-77
2022/03/29 03:47:09;;;;;;;10.23;7.70;;;12.70;52.20;;;-142.21;80.23;112049.66;4954366;28;20540;-76
2022/03/29 03:49:37;;;;;;;9.53;7.87;;;12.70;52.10;;;-142.21;79.22;112049.66;4954544;28;20531;-77
2022/03/29 03:52:05;;;;;;;7.40;6.60;;;12.70;52.30;;;-142.21;79.58;112049.66;4953498;28;20457;-77
2022/03/29 03:54:35;;;;;;;9.90;7.80;;;12.70;52.20;;;-142.21;81.52;112049.66;4954391;28;20535;-78
2022/03/29 03:57:04;;;;;;;9.57;7.60;;;12.60;51.90;;;-142.21;82.68;112049.66;4953229;28;20457;-76
2022/03/29 03:59:31;;;;;;;9.40;7.37;;;12.50;52.70;;;-142.21;83.64;112049.66;4937910;28;20457;-77
2022/03/29 04:01:59;;;;;;;9.37;6.77;;;12.60;53.00;;;-142.21;83.73;112049.66;4941851;29;20960;-76
2022/03/29 04:04:27;;;;;;;10.40;7.07;;;12.50;52.90;;;-142.21;83.18;112049.66;4954634;29;20452;-77
2022/03/29 04:06:54;;;;;;;11.20;7.90;;;12.60;52.70;;;-142.21;84.83;112049.66;4954484;29;20461;-77
2022/03/29 04:09:21;;;;;;;10.97;7.20;;;12.60;53.20;;;-142.21;84.35;112049.66;4953855;28;20535;-76
2022/03/29 04:11:50;;;;;;;11.20;7.77;;;12.60;53.40;;;-142.21;82.81;112049.66;4953950;28;20487;-77
2022/03/29 04:14:17;;;;;;;8.70;7.30;;;12.70;52.80;;;-142.21;83.38;112049.66;4953364;28;20938;-75
2022/03/29 04:16:44;;;;;;;8.77;6.83;;;12.70;52.50;;;-142.21;84.83;112049.66;4953674;28;20571;-76
2022/03/29 04:19:12;;;;;;;11.23;7.97;;;12.70;52.80;;;-142.21;85.07;112049.66;4952870;28;20540;-76
2022/03/29 04:21:39;;;;;;;12.13;8.10;;;12.70;52.80;;;-142.21;83.85;112049.66;4953105;28;20445;-77
2022/03/29 04:24:07;;;;;;;9.07;7.20;;;12.70;52.70;;;-142.21;85.11;112049.66;4948938;28;21024;-78
2022/03/29 04:26:35;;;;;;;10.90;7.67;;;12.70;53.90;;;-142.21;84.56;112049.66;4954005;28;20492;-77
2022/03/29 04:29:03;;;;;;;8.73;7.20;;;12.60;53.60;;;-142.21;83.35;112049.66;4941842;28;20966;-77
2022/03/29 04:31:31;;;;;;;9.37;7.10;;;12.60;53.40;;;-142.21;83.62;112049.66;4943183;29;20579;-78
2022/03/29 04:33:59;;;;;;;11.67;7.23;;;12.60;52.80;;;-142.21;84.80;112049.66;4953229;28;20456;-77
2022/03/29 04:36:27;;;;;;;15.13;8.70;;;12.60;53.20;;;-142.21;89.12;112049.66;4961910;28;20543;-77
2022/03/29 04:38:58;;;;;;;12.50;7.90;;;12.60;54.00;;;-142.21;91.20;112049.66;4942334;29;20533;-77
2022/03/29 04:41:26;;;;;;;12.23;7.57;;;12.60;55.90;;;-142.21;86.93;112049.66;4950945;29;20465;-77
2022/03/29 04:43:53;;;;;;;13.03;6.53;;;12.60;54.20;;;-142.21;87.03;112049.66;4953817;28;20456;-78
2022/03/29 04:46:22;;;;;;;9.03;7.33;;;12.50;54.70;;;-142.21;88.27;112049.66;4952534;28;20459;-77
2022/03/29 04:48:52;;;;;;;9.73;7.10;;;12.50;54.70;;;-142.21;87.97;112049.66;4953430;28;20507;-77
2022/03/29 04:51:19;;;;;;;10.57;7.67;;;12.50;54.00;;;-142.21;87.42;112049.66;4952702;28;20543;-78
2022/03/29 04:53:46;;;;;;;9.93;7.07;;;12.60;54.00;;;-142.21;88.43;112049.66;4952883;28;20484;-77
2022/03/29 04:56:14;;;;;;;11.27;8.23;;;12.60;53.90;;;-142.21;88.21;112049.66;4948599;28;20553;-76
2022/03/29 04:58:41;;;;;;;10.17;7.10;;;12.60;53.90;;;-142.21;85.93;112049.66;4953111;28;20532;-78
2022/03/29 05:01:08;;;;;;;8.50;7.20;;;12.60;54.10;;;-142.21;85.81;112049.66;4953147;28;20505;-77
2022/03/29 05:03:37;;;;;;;10.23;7.93;;;12.60;53.70;;;-142.21;86.67;112049.66;4953897;28;20547;-78
2022/03/29 05:06:04;;;;;;;9.47;7.47;;;12.60;53.80;;;-142.21;87.15;112049.66;4956252;28;20890;-78
2022/03/29 05:08:32;;;;;;;11.47;7.53;;;12.50;53.70;;;-142.21;87.74;112049.66;4956819;28;20531;-77
2022/03/29 05:10:59;;;;;;;8.93;6.40;;;12.50;53.60;;;-142.21;86.10;112049.66;4956704;28;20496;-77
2022/03/29 05:13:27;;;;;;;12.43;7.87;;;12.50;53.80;;;-142.21;86.99;112049.66;4955148;28;20455;-78
2022/03/29 05:15:55;;;;;;;10.37;6.93;;;12.20;54.40;;;-142.21;86.98;112049.66;4950122;29;20456;-76
2022/03/29 05:18:22;;;;;;;10.23;7.13;;;12.30;54.50;;;-142.21;89.13;112049.66;4957368;28;20495;-78
2022/03/29 05:20:51;;;;;;;8.30;6.73;;;12.30;54.30;;;-142.21;89.41;112049.66;4956242;28;20535;-78
2022/03/29 05:23:18;;;;;;;9.93;7.07;;;12.30;54.30;;;-142.21;87.46;112049.66;4950482;28;20492;-77
2022/03/29 05:25:45;;;;;;;11.70;8.23;;;12.30;54.10;;;-142.21;89.28;112049.66;4957059;28;20481;-76
2022/03/29 05:28:12;;;;;;;11.10;6.90;;;12.30;54.40;;;-142.21;86.85;112049.66;4956611;28;20556;-78
2022/03/29 05:30:40;;;;;;;10.87;7.20;;;12.30;54.30;;;-142.21;87.93;112049.66;4956883;29;20579;-78
2022/03/29 05:33:10;;;;;;;8.60;7.47;;;12.30;54.50;;;-142.21;89.28;112049.66;4955736;28;20457;-76
2022/03/29 05:35:37;;;;;;;9.03;7.40;;;12.30;54.30;;;-142.21;88.35;112049.66;4956132;29;20483;-77
2022/03/29 05:38:06;;;;;;;9.70;6.87;;;12.40;53.90;;;-142.21;87.46;112049.66;4947312;28;20446;-78
2022/03/29 05:40:33;;;;;;;7.87;6.80;;;12.40;54.10;;;-142.21;87.43;112049.66;4957024;28;20544;-78
2022/03/29 05:43:00;;;;;;;8.73;7.10;;;12.40;54.10;;;-142.21;87.79;112049.66;4956500;28;20445;-77
2022/03/29 05:45:28;;;;;;;9.90;7.30;;;12.40;54.40;;;-142.21;88.07;112049.66;4957520;28;20795;-77
2022/03/29 05:50:40;;;;;;;10.53;7.27;;;12.40;54.30;;;-142.21;88.69;112049.66;4935820;28;20480;-78
2022/03/29 05:53:08;;;;;;;9.70;7.40;;;12.50;54.40;;;-142.21;88.54;112049.66;4938214;29;20528;-77
2022/03/29 05:55:36;;;;;;;12.03;8.10;;;12.50;54.40;;;-142.21;89.21;112049.66;4957530;28;20456;-78
2022/03/29 05:58:03;;;;;;;11.77;7.50;;;12.60;54.30;;;-142.21;87.90;112049.66;4956612;28;20453;-77
2022/03/29 06:00:31;;;;;;;9.93;8.07;;;12.60;54.40;;;-142.21;88.08;112049.66;4956636;28;20540;-76
2022/03/29 06:02:59;;;;;;;10.03;7.50;;;12.60;53.90;;;-142.21;86.38;112049.66;4955848;29;20508;-77
2022/03/29 06:05:27;;;;;;;9.87;7.97;;;12.60;53.60;;;-142.21;85.83;112049.66;4955527;28;20459;-76
2022/03/29 06:07:54;;;;;;;11.23;7.63;;;12.70;54.10;;;-142.21;84.97;112049.66;4956782;28;20458;-77
2022/03/29 06:10:23;;;;;;;10.07;7.27;;;12.60;53.80;;;-142.21;85.32;112049.66;4956039;29;20484;-78
2022/03/29 06:12:50;;;;;;;10.97;7.67;;;12.60;53.90;;;-142.21;86.19;112049.66;4956048;28;20453;-76
2022/03/29 06:15:17;;;;;;;9.97;7.83;;;12.70;53.80;;;-142.21;86.23;112049.66;4955301;28;20456;-78
2022/03/29 06:17:45;;;;;;;11.50;8.23;;;12.80;53.90;;;-142.21;87.11;112049.66;4946443;28;20449;-76
2022/03/29 06:20:12;;;;;;;11.47;8.17;;;12.80;53.80;;;-142.21;86.97;112049.66;4955907;29;20473;-77
2022/03/29 06:22:43;;;;;;;11.10;7.50;;;12.90;54.10;;;-142.21;87.67;112049.66;4954991;28;20981;-78
2022/03/29 06:25:11;;;;;;;11.77;8.00;;;13.00;54.60;;;-142.21;86.71;112049.66;4955792;29;20468;-76
2022/03/29 06:27:40;;;;;;;9.73;7.83;;;13.20;54.00;;;-142.21;86.54;112049.66;4955209;28;20457;-77
2022/03/29 06:30:09;;;;;;;10.47;7.77;;;13.20;53.40;;;-142.21;87.42;112049.66;4955183;28;20496;-77
2022/03/29 06:32:46;;;;;;;10.97;7.90;;;13.20;53.60;;;-142.21;88.02;112049.66;4952282;28;20457;-74
2022/03/29 06:35:13;;;;;;;13.10;8.10;;;13.20;54.30;;;-142.21;86.86;112049.66;4955906;29;20441;-75
2022/03/29 06:37:41;;;;;;;10.63;7.53;;;13.30;53.80;;;-142.21;86.97;112049.66;4955633;28;20449;-78
2022/03/29 06:40:11;;;;;;;10.37;7.37;;;13.40;53.60;;;-142.21;86.44;112049.66;4955482;28;20449;-76
2022/03/29 06:42:39;;;;;;;12.27;8.37;;;13.50;53.60;;;-142.21;86.07;112049.66;4955296;28;20483;-76
2022/03/29 06:45:08;;;;;;;13.70;8.17;;;13.60;53.40;;;-142.21;87.21;112049.66;4955538;29;20540;-75
2022/03/29 06:47:35;;;;;;;16.40;7.97;;;13.70;54.10;;;-142.21;86.69;112049.66;4955147;28;20488;-75
2022/03/29 06:50:04;;;;;;;10.40;7.90;;;13.80;54.00;;;-142.21;85.76;112049.66;4955705;28;20547;-75
2022/03/29 06:52:36;;;;;;;15.47;8.17;;;13.90;53.40;;;-142.21;84.59;112049.66;4951136;28;20492;-75
2022/03/29 06:55:03;;;;;;;11.93;8.17;;;13.90;53.20;;;-142.21;85.71;112049.66;4951938;29;20468;-75
2022/03/29 06:57:32;;;;;;;16.80;8.17;;;14.10;53.80;;;-142.21;85.31;112049.66;4955535;28;20488;-76
2022/03/29 07:00:00;;;;;;;9.70;6.87;;;14.20;53.50;;;-142.21;82.70;112049.66;4954674;29;20449;-76
2022/03/29 07:02:28;;;;;;;12.17;8.23;;;14.20;52.70;;;-142.21;85.17;112049.66;4955073;28;20475;-76
2022/03/29 07:04:56;;;;;;;12.23;7.63;;;14.40;52.70;;;-142.21;85.88;112049.66;4954236;28;20945;-76
2022/03/29 07:07:23;;;;;;;11.93;8.10;;;14.50;53.10;;;-142.21;88.00;112049.66;4955658;28;20539;-76
2022/03/29 07:12:48;;;;;;;9.47;7.67;;;14.80;52.50;;;-142.21;84.04;112049.66;4951816;29;20490;-75
2022/03/29 07:15:18;;;;;;;9.93;8.47;;;14.90;52.50;;;-142.21;86.34;112049.66;4954285;29;20455;-76
2022/03/29 07:17:46;;;;;;;10.20;8.13;;;15.00;53.40;;;-142.21;81.80;112049.66;4955480;28;20449;-76
2022/03/29 07:20:16;;;;;;;12.83;8.10;;;15.10;52.00;;;-142.21;87.04;112049.66;4957864;28;20472;-76
2022/03/29 07:22:44;;;;;;;10.63;7.40;;;15.10;51.50;;;-142.21;80.74;112049.66;4974453;28;20897;-76
2022/03/29 07:25:12;;;;;;;10.63;8.10;;;15.20;51.50;;;-142.21;83.15;112049.66;4962880;28;20539;-76
2022/03/29 07:27:40;;;;;;;17.13;8.43;;;15.40;51.30;;;-142.21;79.67;112049.66;4953900;28;20540;-76
2022/03/29 07:30:10;;;;;;;13.03;8.70;;;15.40;50.80;;;-142.21;83.73;112049.66;4952581;28;20453;-76
2022/03/29 07:32:46;;;;;;;12.23;9.23;;;15.50;51.80;;;-142.21;83.46;112049.66;4955209;28;20488;-76
2022/03/29 07:35:15;;;;;;;10.57;8.93;;;15.70;51.70;;;-142.21;85.85;112049.66;4954089;29;20451;-76
2022/03/29 07:37:43;;;;;;;14.23;9.37;;;15.80;52.10;;;-142.21;84.83;112049.66;4964655;28;20452;-76
2022/03/29 07:40:13;;;;;;;12.43;9.83;;;15.90;51.90;;;-142.21;85.78;112049.66;4954622;28;20543;-76
2022/03/29 07:42:40;;;;;;;13.60;9.23;;;16.00;52.00;;;-142.21;84.94;112049.66;4954653;28;20504;-75
2022/03/29 07:45:11;;;;;;;14.57;9.83;;;16.10;51.20;;;-142.21;87.48;112049.66;4953489;28;20551;-75
2022/03/29 07:47:41;;;;;;;14.80;10.30;;;16.30;51.50;;;-142.21;87.06;112049.66;4957571;28;20441;-76
2022/03/29 07:50:12;;;;;;;14.33;10.07;;;16.40;52.20;;;-142.21;88.12;112049.66;4951431;28;20791;-75
2022/03/29 07:52:41;;;;;;;14.83;10.10;;;16.50;52.60;;;-142.21;88.51;112049.66;4973745;28;20480;-76
2022/03/29 07:55:11;;;;;;;14.47;10.00;;;16.60;52.60;;;-142.21;85.78;112049.66;4960861;28;20475;-76
2022/03/29 07:57:40;;;;;;;13.00;9.27;;;16.70;50.30;;;-142.21;85.38;112049.66;4953993;28;20872;-76
2022/03/29 08:02:56;;;;;;;14.43;9.80;;;16.90;50.30;;;-142.21;77.40;112049.66;4954519;29;20424;-75
2022/03/29 08:05:24;;;;;;;14.93;9.80;;;16.90;49.20;;;-142.21;79.77;112049.66;4961411;28;20530;-75
2022/03/29 08:07:52;;;;;;;13.33;10.80;;;16.90;49.70;;;-142.21;75.43;112049.66;4954583;29;20453;-76
2022/03/29 08:10:20;;;;;;;16.03;10.57;;;16.90;48.90;;;-142.21;78.50;112049.66;4954011;28;20842;-76
2022/03/29 08:12:47;;;;;;;18.10;11.40;;;16.90;49.40;;;-142.21;78.18;112049.66;4955191;28;20572;-77
2022/03/29 08:15:14;;;;;;;19.80;11.90;;;17.00;49.20;;;-142.21;73.04;112049.66;4963028;28;20536;-77
2022/03/29 08:17:41;;;;;;;17.50;11.50;;;17.10;48.80;;;-142.21;74.07;112049.66;4963407;28;20476;-77
2022/03/29 08:20:11;;;;;;;19.00;12.37;;;17.10;48.30;;;-142.21;74.68;112049.66;4955949;28;20524;-77
2022/03/29 08:22:44;;;;;;;18.27;12.13;;;17.20;48.80;;;-142.21;76.95;112049.66;4952931;28;20477;-78
2022/03/29 08:25:13;;;;;;;22.37;13.40;;;17.30;49.00;;;-142.21;73.42;112049.66;4952045;29;20457;-78
2022/03/29 08:27:40;;;;;;;21.73;12.73;;;17.40;48.50;;;-142.21;75.20;112049.66;4959860;28;20451;-77
2022/03/29 08:30:10;;;;;;;21.83;13.63;;;17.50;48.50;;;-142.21;75.84;112049.66;4958820;28;20980;-79
2022/03/29 08:32:38;;;;;;;20.63;13.20;;;17.60;48.70;;;-142.21;71.67;112049.66;4953231;28;20500;-79
2022/03/29 08:35:08;;;;;;;24.83;14.40;;;17.70;47.50;;;-142.21;69.98;112049.66;4953463;29;21009;-79
2022/03/29 08:37:36;;;;;;;24.13;14.83;;;17.80;47.10;;;-142.21;72.21;112049.66;4953228;28;20473;-79
2022/03/29 08:40:07;;;;;;;24.20;14.40;;;17.90;47.60;;;-142.21;72.30;112049.66;4942804;29;20457;-80
2022/03/29 08:42:34;;;;;;;26.83;15.53;;;18.00;46.60;;;-142.21;71.32;112049.66;4954040;29;20495;-78
2022/03/29 08:45:08;;;;;;;27.07;14.30;;;18.10;47.50;;;-142.21;69.47;112049.66;4952352;29;20472;-78
2022/03/29 08:47:36;;;;;;;21.90;15.73;;;18.20;47.00;;;-142.21;70.11;112049.66;4953644;29;20539;-76
2022/03/29 08:50:06;;;;;;;24.07;15.57;;;18.40;47.30;;;-142.21;70.42;112049.66;4952943;28;20548;-75
2022/03/29 08:52:34;;;;;;;21.87;15.03;;;18.40;46.80;;;-142.21;72.87;112049.66;4954870;28;20504;-77
2022/03/29 08:55:03;;;;;;;22.60;14.90;;;18.50;46.90;;;-142.21;70.48;112049.66;4951208;28;20461;-77
2022/03/29 08:57:32;;;;;;;26.83;15.93;;;18.60;46.40;;;-142.21;69.92;112049.66;4967508;28;20447;-77
2022/03/29 09:00:00;;;;;;;25.43;16.20;;;18.60;46.30;;;-142.21;69.28;112049.66;4934915;28;20468;-78
2022/03/29 09:02:33;;;;;;;23.83;16.30;;;18.70;46.10;;;-142.21;69.46;112049.66;4936475;29;20524;-78
2022/03/29 09:05:09;;;;;;;24.43;14.47;;;18.80;46.50;;;-142.21;66.41;112049.66;4970739;28;20479;-78
2022/03/29 09:07:52;;;;;;;23.17;14.87;;;18.90;44.90;;;-142.21;66.24;112049.66;4973194;28;20502;-77
2022/03/29 09:10:20;;;;;;;23.60;15.37;;;19.00;44.60;;;-142.21;69.91;112049.66;4953428;28;20539;-78
2022/03/29 09:12:50;;;;;;;21.30;15.20;;;19.30;46.00;;;-142.21;64.88;112049.66;4961007;28;20567;-79
2022/03/29 09:15:18;;;;;;;23.97;15.97;;;19.70;45.30;;;-142.21;65.07;112049.66;4952486;29;20217;-76
2022/03/29 09:17:47;;;;;;;23.20;16.37;;;20.00;44.70;;;-142.21;69.07;112049.66;4953105;28;20665;-79
2022/03/29 09:20:20;;;;;;;22.40;16.00;;;20.40;45.10;;;-142.21;71.76;112049.66;4952675;28;20317;-78
2022/03/29 09:22:50;;;;;;;23.87;15.97;;;20.90;45.30;;;-142.21;69.00;112049.66;4951847;28;20229;-79
2022/03/29 09:25:47;;;;;;;28.07;16.27;;;21.40;42.60;;;-142.21;69.00;112049.66;4954361;29;20662;-75
2022/03/29 09:28:18;;;;;;;25.30;17.00;;;21.80;43.40;;;-142.21;71.60;112049.66;4953439;28;20389;-79
2022/03/29 09:30:49;;;;;;;27.47;17.37;;;22.30;42.90;;;-142.21;69.66;112049.66;4953497;29;20260;-79
2022/03/29 09:33:19;;;;;;;22.43;14.93;;;22.40;41.50;;;-142.21;65.93;112049.66;4951829;28;20221;-77
2022/03/29 09:35:58;;;;;;;23.70;16.07;;;22.30;42.30;;;-142.21;65.32;112049.66;4949912;29;20222;-77
2022/03/29 09:38:30;;;;;;;23.77;16.47;;;22.30;41.00;;;-142.21;66.67;112049.66;4947294;29;20703;-76
2022/03/29 09:41:00;;;;;;;27.83;16.60;;;22.10;41.30;;;-142.21;66.28;112049.66;4953689;28;20198;-76
2022/03/29 09:43:31;;;;;;;21.80;15.90;;;22.00;41.10;;;-142.21;65.01;112049.66;4941070;29;20244;-77
2022/03/29 09:46:02;;;;;;;26.90;17.03;;;21.80;41.10;;;-142.21;71.18;112049.66;4952289;28;20555;-77
2022/03/29 09:48:34;;;;;;;23.43;17.10;;;21.60;41.70;;;-142.21;71.62;112049.66;4952052;29;20229;-75
2022/03/29 09:51:21;;;;;;;24.17;16.27;;;21.40;42.90;;;-142.21;72.19;112049.66;4954454;28;20198;-76
2022/03/29 09:53:52;;;;;;;27.50;17.57;;;21.20;42.70;;;-142.21;70.00;112049.66;4960065;28;20200;-78
2022/03/29 09:56:24;;;;;;;24.13;16.57;;;21.00;42.60;;;-142.21;70.57;112049.66;4955214;29;20252;-79
2022/03/29 09:59:06;;;;;;;24.93;17.13;;;20.80;42.60;;;-142.21;71.58;112049.66;4945796;29;20564;-76
2022/03/29 10:01:47;;;;;;;25.70;15.77;;;20.60;42.90;;;-142.21;71.86;112049.66;4970006;28;20204;-79
2022/03/29 10:04:17;;;;;;;25.87;16.10;;;20.50;43.10;;;-142.21;72.12;112049.66;4952873;29;20189;-78
2022/03/29 10:06:47;;;;;;;27.90;16.70;;;20.40;43.80;;;-142.21;72.54;112049.66;4955687;28;20288;-77
2022/03/29 10:09:29;;;;;;;25.67;17.03;;;20.30;43.30;;;-142.21;72.13;112049.66;4946583;29;20198;-79
2022/03/29 10:12:00;;;;;;;26.40;16.47;;;20.30;43.30;;;-142.21;70.12;112049.66;4953149;29;20228;-79